SWA3150 KMDW-KDCA
Flight info
| Callsign | SWA3150 |
|---|---|
| Flight time | 1h 12m |
| Altitude | 39000 |
| Route | LEWKE GIJ OTENS ANEWA JERRI NUSMM BUCKO FRDMM6 |
| Aircraft | B738/M-SADE2E3GIJ4RWZ/LB1D1 |
Departure
| Time | 2026-05-06 19:08 |
|---|---|
| Airport | Chicago Midway International Airport (KMDW) |
Arrival
| Time | 2026-05-06 20:20 |
|---|---|
| Airport | Ronald Reagan Washington National Airport (KDCA) |
| Time | Latitude | Longitude | Altitude | Speed | Heading |
|---|---|---|---|---|---|
| 2026-05-06 18:56 | 41.78788 | -87.74501 | 619 ft | 0 kts | 132° |
| 2026-05-06 19:00 | 41.78791 | -87.74505 | 619 ft | 2 kts | 131° |
| 2026-05-06 19:00 | 41.78802 | -87.74525 | 632 ft | 3 kts | 123° |
| 2026-05-06 19:00 | 41.78813 | -87.74548 | 628 ft | 3 kts | 118° |
| 2026-05-06 19:00 | 41.78819 | -87.74564 | 628 ft | 3 kts | 123° |
| 2026-05-06 19:01 | 41.78830 | -87.74591 | 626 ft | 3 kts | 95° |
| 2026-05-06 19:01 | 41.78828 | -87.74615 | 630 ft | 3 kts | 60° |
| 2026-05-06 19:01 | 41.78818 | -87.74634 | 631 ft | 2 kts | 43° |
| 2026-05-06 19:01 | 41.78813 | -87.74640 | 627 ft | 1 kts | 43° |
| 2026-05-06 19:05 | 41.78835 | -87.74613 | 628 ft | 11 kts | 43° |
| 2026-05-06 19:05 | 41.78924 | -87.74497 | 624 ft | 22 kts | 45° |
| 2026-05-06 19:05 | 41.78971 | -87.74437 | 622 ft | 0 kts | 43° |
| 2026-05-06 19:06 | 41.78981 | -87.74421 | 631 ft | 6 kts | 47° |
| 2026-05-06 19:06 | 41.79037 | -87.74349 | 618 ft | 13 kts | 42° |
| 2026-05-06 19:06 | 41.79112 | -87.74266 | 623 ft | 11 kts | 23° |
| 2026-05-06 19:07 | 41.79140 | -87.74262 | 622 ft | 6 kts | 353° |
| 2026-05-06 19:07 | 41.79175 | -87.74301 | 625 ft | 14 kts | 291° |
| 2026-05-06 19:07 | 41.79037 | -87.74520 | 628 ft | 49 kts | 224° |
| 2026-05-06 19:07 | 41.78578 | -87.75102 | 616 ft | 130 kts | 225° |
| 2026-05-06 19:08 | 41.77782 | -87.76089 | 884 ft | 173 kts | 226° |
| 2026-05-06 19:08 | 41.76884 | -87.77245 | 1909 ft | 181 kts | 229° |
| 2026-05-06 19:08 | 41.75944 | -87.78357 | 3095 ft | 181 kts | 226° |
| 2026-05-06 19:08 | 41.75003 | -87.79598 | 3569 ft | 209 kts | 223° |
| 2026-05-06 19:09 | 41.73537 | -87.80232 | 3941 ft | 242 kts | 177° |
| 2026-05-06 19:09 | 41.71937 | -87.79348 | 4655 ft | 264 kts | 145° |
| 2026-05-06 19:09 | 41.70709 | -87.77423 | 5388 ft | 281 kts | 117° |
| 2026-05-06 19:09 | 41.70271 | -87.74880 | 6377 ft | 283 kts | 88° |
| 2026-05-06 19:10 | 41.70448 | -87.72244 | 7213 ft | 289 kts | 81° |
| 2026-05-06 19:10 | 41.70748 | -87.69544 | 8002 ft | 295 kts | 80° |
| 2026-05-06 19:10 | 41.71061 | -87.66805 | 8840 ft | 301 kts | 81° |
| 2026-05-06 19:10 | 41.71363 | -87.64002 | 9624 ft | 309 kts | 81° |
| 2026-05-06 19:11 | 41.71651 | -87.61140 | 9959 ft | 312 kts | 82° |
| 2026-05-06 19:11 | 41.71924 | -87.58245 | 9979 ft | 313 kts | 82° |
| 2026-05-06 19:11 | 41.72183 | -87.55359 | 9976 ft | 312 kts | 83° |
| 2026-05-06 19:11 | 41.72434 | -87.52467 | 9995 ft | 313 kts | 83° |
| 2026-05-06 19:12 | 41.72681 | -87.49564 | 10083 ft | 317 kts | 83° |
| 2026-05-06 19:12 | 41.72931 | -87.46597 | 10685 ft | 323 kts | 83° |
| 2026-05-06 19:12 | 41.73181 | -87.43602 | 11507 ft | 327 kts | 83° |
| 2026-05-06 19:12 | 41.73517 | -87.40505 | 11866 ft | 348 kts | 81° |
| 2026-05-06 19:13 | 41.73900 | -87.37192 | 12097 ft | 371 kts | 81° |
| 2026-05-06 19:13 | 41.74254 | -87.33711 | 12623 ft | 383 kts | 83° |
| 2026-05-06 19:13 | 41.74565 | -87.30136 | 13353 ft | 389 kts | 84° |
| 2026-05-06 19:13 | 41.74840 | -87.26536 | 13995 ft | 397 kts | 85° |
| 2026-05-06 19:14 | 41.75103 | -87.22778 | 14645 ft | 402 kts | 85° |
| 2026-05-06 19:14 | 41.75351 | -87.19069 | 15297 ft | 407 kts | 86° |
| 2026-05-06 19:14 | 41.75357 | -87.15257 | 15888 ft | 413 kts | 99° |
| 2026-05-06 19:14 | 41.74761 | -87.11485 | 16508 ft | 415 kts | 110° |
| 2026-05-06 19:15 | 41.73828 | -87.07826 | 17129 ft | 417 kts | 115° |
| 2026-05-06 19:15 | 41.72777 | -87.04190 | 17904 ft | 418 kts | 116° |
| 2026-05-06 19:15 | 41.71684 | -87.00570 | 18534 ft | 422 kts | 117° |
| 2026-05-06 19:15 | 41.70574 | -86.96907 | 19053 ft | 428 kts | 117° |
| 2026-05-06 19:16 | 41.69465 | -86.93181 | 19614 ft | 432 kts | 117° |
| 2026-05-06 19:16 | 41.68358 | -86.89435 | 20211 ft | 434 kts | 117° |
| 2026-05-06 19:16 | 41.67242 | -86.85659 | 20776 ft | 439 kts | 117° |
| 2026-05-06 19:16 | 41.66117 | -86.81854 | 21290 ft | 444 kts | 117° |
| 2026-05-06 19:17 | 41.65358 | -86.79296 | 21636 ft | 447 kts | 117° |
| 2026-05-06 19:17 | 41.64207 | -86.75421 | 22164 ft | 451 kts | 117° |
| 2026-05-06 19:17 | 41.63042 | -86.71509 | 22692 ft | 455 kts | 117° |
| 2026-05-06 19:17 | 41.61866 | -86.67565 | 23198 ft | 459 kts | 117° |
| 2026-05-06 19:18 | 41.60676 | -86.63586 | 23680 ft | 463 kts | 117° |
| 2026-05-06 19:18 | 41.59079 | -86.58257 | 24159 ft | 470 kts | 118° |
| 2026-05-06 19:18 | 41.57852 | -86.54173 | 24467 ft | 477 kts | 118° |
| 2026-05-06 19:18 | 41.57014 | -86.51388 | 24686 ft | 481 kts | 118° |
| 2026-05-06 19:19 | 41.55758 | -86.47217 | 25050 ft | 486 kts | 118° |
| 2026-05-06 19:19 | 41.54493 | -86.43019 | 25417 ft | 490 kts | 119° |
| 2026-05-06 19:19 | 41.53212 | -86.38775 | 25768 ft | 495 kts | 119° |
| 2026-05-06 19:19 | 41.51927 | -86.34524 | 26088 ft | 500 kts | 119° |
| 2026-05-06 19:20 | 41.50618 | -86.30203 | 26427 ft | 505 kts | 120° |
| 2026-05-06 19:20 | 41.49289 | -86.25824 | 26607 ft | 513 kts | 120° |
| 2026-05-06 19:20 | 41.47933 | -86.21373 | 26779 ft | 521 kts | 120° |
| 2026-05-06 19:20 | 41.46566 | -86.16884 | 27140 ft | 524 kts | 120° |
| 2026-05-06 19:21 | 41.45192 | -86.12371 | 27498 ft | 527 kts | 120° |
| 2026-05-06 19:21 | 41.43804 | -86.07819 | 27814 ft | 531 kts | 121° |
| 2026-05-06 19:21 | 41.42403 | -86.03236 | 28127 ft | 536 kts | 121° |
| 2026-05-06 19:21 | 41.40991 | -85.98627 | 28426 ft | 540 kts | 121° |
| 2026-05-06 19:22 | 41.39564 | -85.93979 | 28731 ft | 544 kts | 121° |
| 2026-05-06 19:22 | 41.38146 | -85.89366 | 29018 ft | 548 kts | 121° |
| 2026-05-06 19:22 | 41.36693 | -85.84649 | 29313 ft | 552 kts | 122° |
| 2026-05-06 19:22 | 41.35230 | -85.79910 | 29602 ft | 555 kts | 122° |
| 2026-05-06 19:23 | 41.33754 | -85.75136 | 29884 ft | 559 kts | 122° |
| 2026-05-06 19:23 | 41.32271 | -85.70345 | 30148 ft | 563 kts | 122° |
| 2026-05-06 19:23 | 41.30772 | -85.65511 | 30396 ft | 566 kts | 122° |
| 2026-05-06 19:23 | 41.29264 | -85.60654 | 30674 ft | 567 kts | 122° |
| 2026-05-06 19:24 | 41.27757 | -85.55806 | 31024 ft | 567 kts | 122° |
| 2026-05-06 19:24 | 41.26252 | -85.50970 | 31393 ft | 566 kts | 122° |
| 2026-05-06 19:24 | 41.24740 | -85.46126 | 31613 ft | 568 kts | 122° |
| 2026-05-06 19:24 | 41.23222 | -85.41277 | 31822 ft | 570 kts | 122° |
| 2026-05-06 19:25 | 41.21699 | -85.36427 | 32124 ft | 570 kts | 122° |
| 2026-05-06 19:25 | 41.20171 | -85.31561 | 32472 ft | 570 kts | 123° |
| 2026-05-06 19:25 | 41.18646 | -85.26712 | 32838 ft | 570 kts | 123° |
| 2026-05-06 19:25 | 41.17132 | -85.21911 | 33156 ft | 570 kts | 123° |
| 2026-05-06 19:26 | 41.15599 | -85.17059 | 33444 ft | 571 kts | 123° |
| 2026-05-06 19:26 | 41.14060 | -85.12195 | 33749 ft | 571 kts | 123° |
| 2026-05-06 19:26 | 41.12520 | -85.07340 | 34047 ft | 571 kts | 123° |
| 2026-05-06 19:26 | 41.10980 | -85.02488 | 34299 ft | 571 kts | 123° |
| 2026-05-06 19:27 | 41.09441 | -84.97646 | 34606 ft | 569 kts | 123° |
| 2026-05-06 19:27 | 41.07901 | -84.92808 | 34930 ft | 567 kts | 123° |
| 2026-05-06 19:27 | 41.06367 | -84.87998 | 35243 ft | 565 kts | 123° |
| 2026-05-06 19:27 | 41.04838 | -84.83214 | 35583 ft | 564 kts | 123° |
| 2026-05-06 19:28 | 41.03303 | -84.78426 | 35959 ft | 563 kts | 122° |
| 2026-05-06 19:28 | 41.01773 | -84.73661 | 36330 ft | 561 kts | 122° |
| 2026-05-06 19:28 | 41.00244 | -84.68906 | 36605 ft | 560 kts | 122° |
| 2026-05-06 19:28 | 40.98717 | -84.64167 | 36848 ft | 559 kts | 122° |
| 2026-05-06 19:29 | 40.97208 | -84.59495 | 37102 ft | 558 kts | 122° |
| 2026-05-06 19:29 | 40.95662 | -84.54711 | 37372 ft | 557 kts | 122° |
| 2026-05-06 19:29 | 40.94137 | -84.50003 | 37615 ft | 557 kts | 122° |
| 2026-05-06 19:29 | 40.92609 | -84.45297 | 37820 ft | 557 kts | 122° |
| 2026-05-06 19:30 | 40.91077 | -84.40586 | 37993 ft | 558 kts | 122° |
| 2026-05-06 19:30 | 40.89544 | -84.35879 | 38169 ft | 559 kts | 122° |
| 2026-05-06 19:30 | 40.88004 | -84.31156 | 38347 ft | 559 kts | 122° |
| 2026-05-06 19:30 | 40.86486 | -84.26507 | 38517 ft | 559 kts | 122° |
| 2026-05-06 19:31 | 40.84944 | -84.21793 | 38641 ft | 560 kts | 122° |
| 2026-05-06 19:31 | 40.83396 | -84.17072 | 38792 ft | 560 kts | 122° |
| 2026-05-06 19:31 | 40.80305 | -84.07658 | 39000 ft | 560 kts | 122° |
| 2026-05-06 19:32 | 40.77199 | -83.98233 | 39013 ft | 557 kts | 122° |
| 2026-05-06 19:32 | 40.74102 | -83.88865 | 38954 ft | 556 kts | 122° |
| 2026-05-06 19:33 | 40.71017 | -83.79563 | 38992 ft | 551 kts | 122° |
| 2026-05-06 19:33 | 40.67934 | -83.70308 | 39000 ft | 552 kts | 122° |
| 2026-05-06 19:34 | 40.64816 | -83.61000 | 39005 ft | 559 kts | 122° |
| 2026-05-06 19:34 | 40.61657 | -83.51589 | 38967 ft | 564 kts | 122° |
| 2026-05-06 19:35 | 40.58502 | -83.42202 | 38973 ft | 566 kts | 122° |
| 2026-05-06 19:35 | 40.55308 | -83.32729 | 38983 ft | 567 kts | 122° |
| 2026-05-06 19:36 | 40.52103 | -83.23258 | 38980 ft | 568 kts | 122° |
| 2026-05-06 19:36 | 40.48882 | -83.13775 | 38973 ft | 568 kts | 122° |
| 2026-05-06 19:37 | 40.45652 | -83.04295 | 38976 ft | 568 kts | 122° |
| 2026-05-06 19:37 | 40.42406 | -82.94810 | 38983 ft | 568 kts | 122° |
| 2026-05-06 19:38 | 40.39160 | -82.85356 | 38979 ft | 568 kts | 122° |
| 2026-05-06 19:38 | 40.35924 | -82.75958 | 38945 ft | 568 kts | 122° |
| 2026-05-06 19:39 | 40.32668 | -82.66532 | 38955 ft | 568 kts | 122° |
| 2026-05-06 19:39 | 40.29399 | -82.57100 | 38954 ft | 567 kts | 122° |
| 2026-05-06 19:40 | 40.26137 | -82.47720 | 38957 ft | 566 kts | 122° |
| 2026-05-06 19:40 | 40.22862 | -82.38337 | 38936 ft | 566 kts | 122° |
| 2026-05-06 19:41 | 40.19588 | -82.28981 | 38937 ft | 564 kts | 123° |
| 2026-05-06 19:41 | 40.16311 | -82.19651 | 38940 ft | 564 kts | 123° |
| 2026-05-06 19:42 | 40.13031 | -82.10344 | 38954 ft | 563 kts | 123° |
| 2026-05-06 19:42 | 40.09746 | -82.01052 | 38947 ft | 564 kts | 123° |
| 2026-05-06 19:43 | 40.06446 | -81.91751 | 38953 ft | 564 kts | 123° |
| 2026-05-06 19:43 | 40.03139 | -81.82454 | 38952 ft | 564 kts | 123° |
| 2026-05-06 19:44 | 39.99822 | -81.73166 | 38949 ft | 565 kts | 123° |
| 2026-05-06 19:44 | 39.96519 | -81.63939 | 38929 ft | 564 kts | 123° |
| 2026-05-06 19:45 | 39.93193 | -81.54675 | 38910 ft | 564 kts | 123° |
| 2026-05-06 19:45 | 39.89864 | -81.45436 | 38937 ft | 563 kts | 123° |
| 2026-05-06 19:46 | 39.86524 | -81.36202 | 38945 ft | 564 kts | 124° |
| 2026-05-06 19:46 | 39.83176 | -81.26975 | 38921 ft | 564 kts | 123° |
| 2026-05-06 19:47 | 39.79819 | -81.17740 | 38930 ft | 562 kts | 123° |
| 2026-05-06 19:47 | 39.76501 | -81.08632 | 38925 ft | 554 kts | 124° |
| 2026-05-06 19:48 | 39.73208 | -80.99633 | 38943 ft | 549 kts | 124° |
| 2026-05-06 19:48 | 39.69953 | -80.90772 | 38880 ft | 544 kts | 124° |
| 2026-05-06 19:49 | 39.66657 | -80.81851 | 38865 ft | 550 kts | 124° |
| 2026-05-06 19:49 | 39.63355 | -80.72921 | 38924 ft | 555 kts | 124° |
| 2026-05-06 19:50 | 39.59996 | -80.63851 | 38933 ft | 560 kts | 124° |
| 2026-05-06 19:50 | 39.56658 | -80.54839 | 38718 ft | 546 kts | 124° |
| 2026-05-06 19:51 | 39.55014 | -80.50415 | 38208 ft | 545 kts | 124° |
| 2026-05-06 19:51 | 39.53360 | -80.45985 | 37526 ft | 547 kts | 124° |
| 2026-05-06 19:51 | 39.51691 | -80.41536 | 36751 ft | 553 kts | 124° |
| 2026-05-06 19:51 | 39.50001 | -80.37042 | 36077 ft | 556 kts | 124° |
| 2026-05-06 19:52 | 39.48334 | -80.32593 | 35912 ft | 544 kts | 124° |
| 2026-05-06 19:52 | 39.46702 | -80.28211 | 35718 ft | 536 kts | 124° |
| 2026-05-06 19:52 | 39.45079 | -80.23878 | 35275 ft | 535 kts | 125° |
| 2026-05-06 19:52 | 39.43449 | -80.19553 | 34793 ft | 535 kts | 125° |
| 2026-05-06 19:53 | 39.41815 | -80.15227 | 34367 ft | 533 kts | 124° |
| 2026-05-06 19:53 | 39.40195 | -80.10935 | 34053 ft | 529 kts | 124° |
| 2026-05-06 19:53 | 39.38607 | -80.06733 | 33717 ft | 525 kts | 125° |
| 2026-05-06 19:53 | 39.37011 | -80.02511 | 33337 ft | 520 kts | 124° |
| 2026-05-06 19:54 | 39.35428 | -79.98334 | 33052 ft | 515 kts | 125° |
| 2026-05-06 19:54 | 39.33858 | -79.94204 | 32718 ft | 510 kts | 126° |
| 2026-05-06 19:54 | 39.32299 | -79.90107 | 32356 ft | 507 kts | 125° |
| 2026-05-06 19:54 | 39.30744 | -79.86026 | 32005 ft | 504 kts | 125° |
| 2026-05-06 19:55 | 39.29358 | -79.81862 | 31623 ft | 511 kts | 112° |
| 2026-05-06 19:55 | 39.28726 | -79.77280 | 30928 ft | 524 kts | 98° |
| 2026-05-06 19:55 | 39.28437 | -79.72580 | 30298 ft | 529 kts | 96° |
| 2026-05-06 19:55 | 39.28174 | -79.67830 | 29721 ft | 529 kts | 97° |
| 2026-05-06 19:56 | 39.27863 | -79.63127 | 29265 ft | 525 kts | 98° |
| 2026-05-06 19:56 | 39.27497 | -79.58459 | 28882 ft | 519 kts | 99° |
| 2026-05-06 19:56 | 39.27117 | -79.53858 | 28478 ft | 513 kts | 99° |
| 2026-05-06 19:56 | 39.26741 | -79.49293 | 28038 ft | 510 kts | 99° |
| 2026-05-06 19:57 | 39.26369 | -79.44751 | 27578 ft | 507 kts | 99° |
| 2026-05-06 19:57 | 39.26001 | -79.40238 | 27091 ft | 504 kts | 99° |
| 2026-05-06 19:57 | 39.25632 | -79.35729 | 26313 ft | 509 kts | 99° |
| 2026-05-06 19:57 | 39.25260 | -79.31208 | 25852 ft | 506 kts | 99° |
| 2026-05-06 19:58 | 39.24888 | -79.26706 | 25382 ft | 503 kts | 99° |
| 2026-05-06 19:58 | 39.24516 | -79.22237 | 24958 ft | 499 kts | 99° |
| 2026-05-06 19:58 | 39.24142 | -79.17797 | 24537 ft | 496 kts | 99° |
| 2026-05-06 19:58 | 39.23765 | -79.13377 | 24101 ft | 493 kts | 99° |
| 2026-05-06 19:59 | 39.23387 | -79.08999 | 23658 ft | 490 kts | 100° |
| 2026-05-06 19:59 | 39.23012 | -79.04649 | 23236 ft | 486 kts | 99° |
| 2026-05-06 19:59 | 39.22644 | -79.00331 | 22775 ft | 483 kts | 99° |
| 2026-05-06 19:59 | 39.22276 | -78.96043 | 22308 ft | 479 kts | 99° |
| 2026-05-06 20:00 | 39.21885 | -78.91796 | 21903 ft | 474 kts | 99° |
| 2026-05-06 20:00 | 39.21481 | -78.87648 | 21489 ft | 470 kts | 99° |
| 2026-05-06 20:00 | 39.21073 | -78.83494 | 21112 ft | 465 kts | 100° |
| 2026-05-06 20:00 | 39.20663 | -78.79363 | 20728 ft | 462 kts | 99° |
| 2026-05-06 20:01 | 39.20259 | -78.75260 | 20321 ft | 460 kts | 99° |
| 2026-05-06 20:01 | 39.19861 | -78.71187 | 19929 ft | 456 kts | 99° |
| 2026-05-06 20:01 | 39.19465 | -78.67139 | 19537 ft | 453 kts | 99° |
| 2026-05-06 20:01 | 39.19070 | -78.63122 | 19149 ft | 449 kts | 98° |
| 2026-05-06 20:02 | 39.18677 | -78.59151 | 18783 ft | 446 kts | 98° |
| 2026-05-06 20:02 | 39.18285 | -78.55198 | 18376 ft | 443 kts | 98° |
| 2026-05-06 20:02 | 39.17894 | -78.51277 | 17986 ft | 439 kts | 98° |
| 2026-05-06 20:02 | 39.17507 | -78.47395 | 17584 ft | 435 kts | 98° |
| 2026-05-06 20:03 | 39.17122 | -78.43549 | 17189 ft | 431 kts | 98° |
| 2026-05-06 20:03 | 39.16738 | -78.39726 | 16851 ft | 426 kts | 99° |
| 2026-05-06 20:03 | 39.16485 | -78.37237 | 16688 ft | 421 kts | 99° |
| 2026-05-06 20:03 | 39.15604 | -78.32376 | 16233 ft | 414 kts | 111° |
| 2026-05-06 20:04 | 39.15004 | -78.30055 | 15995 ft | 411 kts | 112° |
| 2026-05-06 20:04 | 39.14057 | -78.26596 | 15652 ft | 408 kts | 113° |
| 2026-05-06 20:04 | 39.13126 | -78.23159 | 15307 ft | 406 kts | 112° |
| 2026-05-06 20:04 | 39.12231 | -78.19713 | 14968 ft | 404 kts | 111° |
| 2026-05-06 20:05 | 39.11366 | -78.16275 | 14629 ft | 403 kts | 111° |
| 2026-05-06 20:05 | 39.10512 | -78.12844 | 14287 ft | 402 kts | 111° |
| 2026-05-06 20:05 | 39.09656 | -78.09420 | 13932 ft | 400 kts | 111° |
| 2026-05-06 20:05 | 39.08790 | -78.06019 | 13587 ft | 399 kts | 111° |
| 2026-05-06 20:06 | 39.07938 | -78.02691 | 13198 ft | 391 kts | 111° |
| 2026-05-06 20:06 | 39.07103 | -77.99423 | 12842 ft | 379 kts | 112° |
| 2026-05-06 20:06 | 39.06293 | -77.96253 | 12528 ft | 368 kts | 112° |
| 2026-05-06 20:06 | 39.05495 | -77.93141 | 12217 ft | 365 kts | 112° |
| 2026-05-06 20:07 | 39.04700 | -77.90053 | 11899 ft | 362 kts | 112° |
| 2026-05-06 20:07 | 39.03912 | -77.86993 | 11587 ft | 358 kts | 112° |
| 2026-05-06 20:07 | 39.03132 | -77.83961 | 11287 ft | 355 kts | 112° |
| 2026-05-06 20:07 | 39.02360 | -77.80962 | 11006 ft | 352 kts | 112° |
| 2026-05-06 20:08 | 39.01594 | -77.77994 | 10709 ft | 349 kts | 112° |
| 2026-05-06 20:08 | 39.00831 | -77.75037 | 10418 ft | 346 kts | 112° |
| 2026-05-06 20:08 | 39.00075 | -77.72111 | 10108 ft | 341 kts | 112° |
| 2026-05-06 20:08 | 38.99338 | -77.69261 | 9811 ft | 331 kts | 112° |
| 2026-05-06 20:09 | 38.98624 | -77.66496 | 9514 ft | 321 kts | 112° |
| 2026-05-06 20:09 | 38.97901 | -77.63816 | 9229 ft | 314 kts | 115° |
| 2026-05-06 20:09 | 38.97125 | -77.61203 | 8961 ft | 312 kts | 116° |
| 2026-05-06 20:09 | 38.96346 | -77.58613 | 8677 ft | 310 kts | 115° |
| 2026-05-06 20:10 | 38.95575 | -77.56031 | 8408 ft | 308 kts | 115° |
| 2026-05-06 20:10 | 38.94840 | -77.53457 | 8138 ft | 308 kts | 108° |
| 2026-05-06 20:10 | 38.94729 | -77.50717 | 7825 ft | 307 kts | 79° |
| 2026-05-06 20:10 | 38.95391 | -77.48190 | 7536 ft | 300 kts | 65° |
| 2026-05-06 20:11 | 38.96226 | -77.45743 | 7209 ft | 297 kts | 64° |
| 2026-05-06 20:11 | 38.97063 | -77.43317 | 6897 ft | 298 kts | 64° |
| 2026-05-06 20:11 | 38.97915 | -77.40872 | 6534 ft | 303 kts | 59° |
| 2026-05-06 20:11 | 38.98729 | -77.38345 | 6124 ft | 316 kts | 77° |
| 2026-05-06 20:12 | 38.99199 | -77.35595 | 5887 ft | 314 kts | 73° |
| 2026-05-06 20:12 | 39.00033 | -77.33075 | 5642 ft | 300 kts | 53° |
| 2026-05-06 20:12 | 39.01408 | -77.31164 | 5322 ft | 285 kts | 32° |
| 2026-05-06 20:12 | 39.03008 | -77.29758 | 5102 ft | 273 kts | 29° |
| 2026-05-06 20:13 | 39.04545 | -77.28429 | 4910 ft | 259 kts | 29° |
| 2026-05-06 20:13 | 39.05998 | -77.27157 | 4659 ft | 247 kts | 30° |
| 2026-05-06 20:13 | 39.07285 | -77.25767 | 4357 ft | 242 kts | 54° |
| 2026-05-06 20:13 | 39.07711 | -77.23765 | 4103 ft | 231 kts | 101° |
| 2026-05-06 20:14 | 39.07081 | -77.22007 | 3875 ft | 209 kts | 140° |
| 2026-05-06 20:14 | 39.06061 | -77.20720 | 3650 ft | 203 kts | 147° |
| 2026-05-06 20:14 | 39.04862 | -77.19842 | 3404 ft | 196 kts | 166° |
| 2026-05-06 20:14 | 39.03592 | -77.19182 | 3183 ft | 197 kts | 165° |
| 2026-05-06 20:15 | 39.02342 | -77.18502 | 2936 ft | 192 kts | 163° |
| 2026-05-06 20:15 | 39.01133 | -77.17841 | 2781 ft | 187 kts | 165° |
| 2026-05-06 20:15 | 38.99909 | -77.17178 | 2747 ft | 192 kts | 164° |
| 2026-05-06 20:15 | 38.98716 | -77.16523 | 2685 ft | 180 kts | 164° |
| 2026-05-06 20:16 | 38.97602 | -77.15910 | 2686 ft | 171 kts | 164° |
| 2026-05-06 20:16 | 38.96530 | -77.15325 | 2676 ft | 172 kts | 161° |
| 2026-05-06 20:16 | 38.95538 | -77.14343 | 2503 ft | 184 kts | 144° |
| 2026-05-06 20:16 | 38.94598 | -77.13262 | 2386 ft | 176 kts | 147° |
| 2026-05-06 20:17 | 38.93727 | -77.12275 | 2315 ft | 157 kts | 147° |
| 2026-05-06 20:17 | 38.92938 | -77.11511 | 2237 ft | 128 kts | 161° |
| 2026-05-06 20:17 | 38.92167 | -77.11015 | 2096 ft | 128 kts | 165° |
| 2026-05-06 20:17 | 38.91284 | -77.10405 | 2064 ft | 153 kts | 150° |
| 2026-05-06 20:18 | 38.90603 | -77.09294 | 2049 ft | 166 kts | 123° |
| 2026-05-06 20:18 | 38.90257 | -77.07903 | 1804 ft | 158 kts | 120° |
| 2026-05-06 20:18 | 38.89647 | -77.06825 | 1426 ft | 147 kts | 146° |
| 2026-05-06 20:18 | 38.88889 | -77.05939 | 965 ft | 149 kts | 140° |
| 2026-05-06 20:19 | 38.88206 | -77.05009 | 624 ft | 137 kts | 144° |
| 2026-05-06 20:19 | 38.87486 | -77.04298 | 368 ft | 124 kts | 157° |
| 2026-05-06 20:19 | 38.86694 | -77.03941 | 179 ft | 119 kts | 178° |
| 2026-05-06 20:19 | 38.85845 | -77.03842 | 34 ft | 120 kts | 180° |
| 2026-05-06 20:20 | 38.85122 | -77.03774 | 25 ft | 84 kts | 175° |
| 2026-05-06 20:20 | 38.84692 | -77.03730 | 24 ft | 42 kts | 175° |
| 2026-05-06 20:20 | 38.84524 | -77.03714 | 24 ft | 17 kts | 176° |
| 2026-05-06 20:20 | 38.84402 | -77.03756 | 24 ft | 20 kts | 240° |
| 2026-05-06 20:21 | 38.84390 | -77.03835 | 28 ft | 0 kts | 270° |
| 2026-05-06 20:21 | 38.84390 | -77.03836 | 29 ft | 2 kts | 270° |
| 2026-05-06 20:21 | 38.84385 | -77.03933 | 27 ft | 16 kts | 263° |
| 2026-05-06 20:22 | 38.84383 | -77.04085 | 26 ft | 17 kts | 289° |
| 2026-05-06 20:22 | 38.84488 | -77.04134 | 28 ft | 15 kts | 353° |
| 2026-05-06 20:22 | 38.84494 | -77.04135 | 28 ft | 0 kts | 353° |
| 2026-05-06 20:22 | 38.84509 | -77.04137 | 28 ft | 10 kts | 353° |
| 2026-05-06 20:23 | 38.84576 | -77.04173 | 26 ft | 10 kts | 311° |
| 2026-05-06 20:23 | 38.84602 | -77.04232 | 27 ft | 5 kts | 326° |
| 2026-05-06 20:23 | 38.84630 | -77.04243 | 29 ft | 0 kts | 346° |